createdAt,value
2018-07-11T02:05:14.145Z,0.00
2018-07-11T02:06:14.116Z,0.00
2018-07-11T02:08:07.064Z,0.00
2018-07-11T02:09:07.037Z,0.00
2018-07-11T02:10:59.974Z,0.00
2018-07-11T02:11:59.958Z,0.00
2018-07-11T02:13:52.907Z,0.00
2018-07-11T02:14:52.874Z,0.00
2018-07-11T02:16:45.896Z,0.00
2018-07-11T02:17:45.865Z,0.00
2018-07-11T02:18:45.849Z,0.00
2018-07-11T02:19:45.850Z,0.00
2018-07-11T02:20:45.841Z,0.00
2018-07-11T02:21:45.852Z,0.00
2018-07-11T02:22:45.842Z,0.00
2018-07-11T02:23:45.847Z,0.00
2018-07-11T02:24:45.839Z,0.00
2018-07-11T02:25:45.836Z,0.00
2018-07-11T02:26:45.825Z,0.00
2018-07-11T02:27:45.827Z,0.00
2018-07-11T02:28:45.829Z,0.00
2018-07-11T02:29:45.818Z,0.00
2018-07-11T02:30:45.816Z,0.00
2018-07-11T02:31:45.818Z,0.00
2018-07-11T02:32:45.807Z,0.00
2018-07-11T02:33:45.808Z,0.00
2018-07-11T02:34:45.808Z,0.00
2018-07-11T02:35:45.805Z,0.00
2018-07-11T02:36:45.796Z,0.00
2018-07-11T02:37:45.797Z,0.00
2018-07-11T02:38:45.789Z,0.00
2018-07-11T02:39:45.783Z,0.00
2018-07-11T02:40:45.784Z,0.00
2018-07-11T02:41:45.779Z,0.00
2018-07-11T02:42:45.774Z,0.00
2018-07-11T02:43:45.772Z,0.00
2018-07-11T02:44:45.771Z,0.00
2018-07-11T02:45:45.792Z,0.00
2018-07-11T02:46:45.775Z,0.00
2018-07-11T02:47:45.764Z,0.00
2018-07-11T02:48:45.758Z,0.00
2018-07-11T02:49:45.755Z,0.00
2018-07-11T02:50:45.764Z,0.00
2018-07-11T02:51:45.751Z,0.00
2018-07-11T02:52:45.741Z,0.00
2018-07-11T02:53:45.743Z,0.00
2018-07-11T02:54:45.736Z,0.00
2018-07-11T02:55:45.741Z,0.00
2018-07-11T02:56:45.742Z,0.00
2018-07-11T02:57:45.734Z,0.00
2018-07-11T02:58:45.728Z,0.00
2018-07-11T02:59:45.724Z,0.00
2018-07-11T03:00:45.724Z,0.00
2018-07-11T03:01:45.723Z,0.00
2018-07-11T03:02:45.736Z,0.00
2018-07-11T03:03:45.715Z,0.00
2018-07-11T03:04:45.712Z,0.00
2018-07-11T03:05:45.746Z,0.00
2018-07-11T03:06:45.712Z,0.00
2018-07-11T03:07:45.723Z,0.00
2018-07-11T03:08:45.696Z,0.00
2018-07-11T03:09:45.715Z,0.00
2018-07-11T03:10:45.711Z,0.00
2018-07-11T03:11:45.693Z,0.00
2018-07-11T03:12:45.688Z,0.00
2018-07-11T03:13:45.683Z,0.00
2018-07-11T03:14:45.685Z,0.00
2018-07-11T03:15:45.678Z,0.00
2018-07-11T03:16:45.670Z,0.00
2018-07-11T03:17:45.672Z,0.00
2018-07-11T03:18:45.664Z,0.00
2018-07-11T03:19:45.661Z,0.00
2018-07-11T03:20:45.663Z,0.00
2018-07-11T03:21:45.660Z,0.00
2018-07-11T03:22:45.658Z,0.00
2018-07-11T03:23:45.655Z,0.00
2018-07-11T03:24:45.649Z,0.00
2018-07-11T03:25:45.650Z,0.00
2018-07-11T03:26:45.653Z,5.63
2018-07-11T03:27:45.644Z,5.63
2018-07-11T03:28:45.643Z,5.63
2018-07-11T03:29:45.639Z,5.63
2018-07-11T03:30:45.635Z,5.63
2018-07-11T03:31:45.627Z,11.25
2018-07-11T03:32:45.627Z,11.25
2018-07-11T03:33:45.623Z,11.25
2018-07-11T03:34:45.619Z,5.63
2018-07-11T03:35:45.615Z,11.25
2018-07-11T03:36:45.619Z,11.25
2018-07-11T03:37:45.605Z,11.25
2018-07-11T03:38:45.610Z,16.88
2018-07-11T03:39:45.613Z,16.88
2018-07-11T03:40:45.707Z,16.88
2018-07-11T03:41:45.601Z,16.88
2018-07-11T03:42:45.596Z,22.50
2018-07-11T03:43:45.624Z,28.13
2018-07-11T03:44:45.638Z,28.13
2018-07-11T03:45:45.585Z,28.13
2018-07-11T03:46:45.585Z,28.13
2018-07-11T03:47:45.580Z,28.13
2018-07-11T03:48:45.576Z,28.13
2018-07-11T03:49:45.567Z,28.13
2018-07-11T03:50:45.570Z,33.75
2018-07-11T03:51:45.565Z,39.38
2018-07-11T03:52:45.566Z,45.00
2018-07-11T03:53:45.648Z,45.00
2018-07-11T03:54:45.561Z,39.38
2018-07-11T03:55:45.566Z,39.38
2018-07-11T03:56:45.555Z,39.38
2018-07-11T03:57:45.573Z,39.38
2018-07-11T03:58:45.545Z,39.38
2018-07-11T03:59:45.538Z,39.38
2018-07-11T04:00:45.543Z,45.00
2018-07-11T04:01:45.544Z,50.63
2018-07-11T04:02:45.546Z,50.63
2018-07-11T04:03:45.530Z,56.25
2018-07-11T04:04:45.560Z,61.88
2018-07-11T04:05:45.527Z,67.50
2018-07-11T04:06:45.521Z,73.13
2018-07-11T04:07:45.504Z,73.13
2018-07-11T04:08:45.512Z,73.13
2018-07-11T04:09:45.503Z,67.50
2018-07-11T04:10:45.595Z,61.88
2018-07-11T04:11:45.511Z,61.88
2018-07-11T04:12:45.518Z,67.50
2018-07-11T04:13:47.330Z,78.75
2018-07-11T04:14:45.543Z,95.63
2018-07-11T04:15:45.500Z,118.13
2018-07-11T04:16:45.548Z,123.75
2018-07-11T04:17:45.559Z,123.75
2018-07-11T04:18:45.562Z,112.50
2018-07-11T04:19:45.572Z,101.25
2018-07-11T04:20:45.513Z,106.88
2018-07-11T04:21:45.590Z,106.88
2018-07-11T04:22:45.482Z,101.25
2018-07-11T04:23:45.633Z,95.63
2018-07-11T04:24:46.270Z,84.38
2018-07-11T04:25:45.638Z,84.38
2018-07-11T04:26:46.336Z,101.25
2018-07-11T04:27:45.637Z,106.88
2018-07-11T04:28:45.507Z,106.88
2018-07-11T04:29:45.640Z,101.25
2018-07-11T04:30:45.481Z,90.00
2018-07-11T04:31:45.616Z,84.38
2018-07-11T04:32:45.453Z,78.75
2018-07-11T04:33:45.446Z,90.00
2018-07-11T04:34:45.472Z,112.50
2018-07-11T04:35:45.656Z,112.50
2018-07-11T04:36:45.441Z,118.13
2018-07-11T04:37:45.495Z,123.75
2018-07-11T04:38:45.431Z,129.38
2018-07-11T04:39:46.333Z,135.00
2018-07-11T04:40:45.511Z,135.00
2018-07-11T04:41:45.438Z,151.88
2018-07-11T04:42:45.520Z,163.13
2018-07-11T04:43:45.536Z,157.50
2018-07-11T04:44:45.475Z,146.25
2018-07-11T04:45:45.576Z,135.00
2018-07-11T04:46:45.481Z,135.00
2018-07-11T04:47:45.492Z,129.38
2018-07-11T04:48:45.424Z,146.25
2018-07-11T04:49:45.459Z,151.88
2018-07-11T04:50:45.468Z,174.38
2018-07-11T04:51:45.424Z,191.25
2018-07-11T04:52:45.653Z,208.13
2018-07-11T04:53:45.599Z,219.38
2018-07-11T04:54:45.396Z,253.13
2018-07-11T04:55:45.386Z,275.63
2018-07-11T04:56:45.378Z,275.63
2018-07-11T04:57:45.376Z,258.75
2018-07-11T04:58:45.393Z,241.88
2018-07-11T04:59:45.370Z,213.75
2018-07-11T05:00:45.366Z,213.75
2018-07-11T05:01:45.364Z,241.88
2018-07-11T05:02:45.448Z,253.13
2018-07-11T05:03:45.366Z,236.25
2018-07-11T05:04:45.415Z,236.25
2018-07-11T05:05:45.361Z,247.50
2018-07-11T05:06:45.351Z,264.38
2018-07-11T05:07:45.364Z,275.63
2018-07-11T05:08:45.348Z,286.88
2018-07-11T05:09:45.349Z,275.63
2018-07-11T05:10:45.356Z,264.38
2018-07-11T05:11:45.332Z,247.50
2018-07-11T05:12:45.341Z,258.75
2018-07-11T05:13:45.334Z,264.38
2018-07-11T05:14:45.332Z,253.13
2018-07-11T05:15:45.327Z,241.88
2018-07-11T05:16:45.330Z,253.13
2018-07-11T05:17:45.324Z,270.00
2018-07-11T05:18:45.318Z,292.50
2018-07-11T05:19:45.351Z,343.13
2018-07-11T05:20:45.320Z,354.38
2018-07-11T05:21:45.312Z,326.25
2018-07-11T05:22:45.315Z,270.00
2018-07-11T05:23:45.326Z,303.75
2018-07-11T05:24:45.312Z,315.00
2018-07-11T05:25:45.308Z,292.50
2018-07-11T05:26:45.309Z,275.63
2018-07-11T05:27:45.400Z,286.88
2018-07-11T05:28:45.302Z,309.38
2018-07-11T05:29:45.290Z,320.63
2018-07-11T05:30:45.302Z,303.75
2018-07-11T05:31:45.290Z,292.50
2018-07-11T05:32:45.354Z,303.75
2018-07-11T05:33:45.287Z,320.63
2018-07-11T05:34:45.285Z,315.00
2018-07-11T05:35:45.284Z,331.88
2018-07-11T05:36:45.408Z,371.25
2018-07-11T05:37:45.299Z,399.38
2018-07-11T05:38:45.429Z,438.75
2018-07-11T05:39:45.276Z,438.75
2018-07-11T05:40:45.279Z,388.13
2018-07-11T05:41:45.377Z,365.63
2018-07-11T05:42:45.268Z,405.00
2018-07-11T05:43:45.272Z,376.88
2018-07-11T05:44:45.271Z,343.13
2018-07-11T05:45:45.437Z,343.13
2018-07-11T05:46:45.266Z,337.50
2018-07-11T05:47:45.260Z,326.25
2018-07-11T05:48:45.260Z,337.50
2018-07-11T05:49:45.261Z,337.50
2018-07-11T05:50:45.257Z,354.38
2018-07-11T05:51:45.256Z,371.25
2018-07-11T05:52:45.256Z,376.88
2018-07-11T05:53:45.260Z,388.13
2018-07-11T05:54:45.254Z,399.38
2018-07-11T05:55:45.279Z,427.50
2018-07-11T05:56:45.247Z,461.25
2018-07-11T05:57:45.239Z,500.63
2018-07-11T05:58:45.243Z,551.25
2018-07-11T05:59:45.243Z,613.13
2018-07-11T06:00:45.259Z,663.75
2018-07-11T06:01:45.241Z,669.38
2018-07-11T06:02:45.322Z,607.50
2018-07-11T06:03:45.233Z,562.50
2018-07-11T06:04:45.244Z,585.00
2018-07-11T06:05:45.232Z,607.50
2018-07-11T06:06:45.240Z,635.63
2018-07-11T06:07:45.230Z,708.75
2018-07-11T06:08:45.226Z,731.25
2018-07-11T06:09:45.220Z,703.13
2018-07-11T06:10:45.263Z,703.13
2018-07-11T06:11:45.236Z,765.00
2018-07-11T06:12:45.232Z,753.75
2018-07-11T06:13:45.252Z,759.38
2018-07-11T06:14:45.227Z,781.88
2018-07-11T06:15:45.220Z,759.38
2018-07-11T06:16:45.221Z,725.63
2018-07-11T06:17:45.269Z,736.88
2018-07-11T06:18:45.241Z,753.75
2018-07-11T06:19:45.218Z,776.25
2018-07-11T06:20:45.224Z,770.63
2018-07-11T06:21:45.222Z,770.63
2018-07-11T06:22:45.216Z,765.00
2018-07-11T06:23:45.219Z,736.88
2018-07-11T06:24:45.219Z,686.25
2018-07-11T06:25:45.220Z,703.13
2018-07-11T06:26:45.221Z,669.38
2018-07-11T06:27:45.226Z,613.13
2018-07-11T06:28:45.223Z,663.75
2018-07-11T06:29:45.216Z,697.50
2018-07-11T06:30:45.218Z,736.88
2018-07-11T06:31:45.220Z,759.38
2018-07-11T06:32:45.219Z,832.50
2018-07-11T06:33:45.238Z,843.75
2018-07-11T06:34:45.231Z,765.00
2018-07-11T06:35:45.209Z,765.00
2018-07-11T06:36:45.240Z,776.25
2018-07-11T06:37:45.229Z,691.88
2018-07-11T06:38:45.218Z,708.75
2018-07-11T06:39:45.221Z,793.13
2018-07-11T06:40:45.233Z,793.13
2018-07-11T06:41:45.222Z,652.50
2018-07-11T06:42:45.249Z,686.25
2018-07-11T06:43:45.222Z,714.38
2018-07-11T06:44:45.254Z,703.13
2018-07-11T06:45:45.219Z,691.88
2018-07-11T06:46:45.225Z,714.38
2018-07-11T06:47:45.221Z,736.88
2018-07-11T06:48:45.221Z,720.00
2018-07-11T06:49:45.221Z,736.88
2018-07-11T06:50:45.212Z,725.63
2018-07-11T06:51:45.218Z,714.38
2018-07-11T06:52:45.222Z,725.63
2018-07-11T06:53:45.224Z,815.63
2018-07-11T06:54:45.365Z,871.88
2018-07-11T06:55:45.344Z,849.38
2018-07-11T06:56:45.375Z,804.38
2018-07-11T06:57:45.379Z,804.38
2018-07-11T06:58:45.224Z,776.25
2018-07-11T06:59:45.229Z,798.75
2018-07-11T07:00:45.239Z,961.88
2018-07-11T07:01:45.227Z,703.13
2018-07-11T07:02:45.228Z,725.63
2018-07-11T07:03:45.228Z,770.63
2018-07-11T07:04:45.235Z,787.50
2018-07-11T07:05:45.229Z,849.38
2018-07-11T07:06:45.249Z,826.88
2018-07-11T07:07:45.232Z,781.88
2018-07-11T07:08:45.230Z,770.63
2018-07-11T07:09:45.232Z,720.00
2018-07-11T07:10:45.237Z,731.25
2018-07-11T07:11:45.230Z,838.13
2018-07-11T07:12:45.224Z,894.38
2018-07-11T07:13:45.227Z,911.25
2018-07-11T07:14:45.236Z,781.88
2018-07-11T07:15:45.234Z,905.63
2018-07-11T07:16:45.235Z,1485.00
2018-07-11T07:17:45.247Z,1591.88
2018-07-11T07:18:45.245Z,1080.00
2018-07-11T07:19:45.242Z,871.88
2018-07-11T07:20:45.262Z,877.50
2018-07-11T07:21:45.239Z,928.13
2018-07-11T07:22:45.242Z,939.38
2018-07-11T07:23:45.236Z,1096.88
2018-07-11T07:24:45.248Z,1113.75
2018-07-11T07:25:45.245Z,1125.00
2018-07-11T07:26:45.251Z,1023.75
2018-07-11T07:27:45.247Z,978.75
2018-07-11T07:28:45.250Z,956.25
2018-07-11T07:29:45.254Z,950.63
2018-07-11T07:30:45.272Z,1063.13
2018-07-11T07:31:45.261Z,995.63
2018-07-11T07:32:45.249Z,1760.63
2018-07-11T07:33:45.264Z,1361.25
2018-07-11T07:34:45.316Z,1591.88
2018-07-11T07:35:45.266Z,1040.63
2018-07-11T07:36:45.276Z,950.63
2018-07-11T07:37:45.268Z,1130.63
2018-07-11T07:38:45.285Z,1265.63
2018-07-11T07:39:45.300Z,1186.88
2018-07-11T07:40:45.291Z,1226.25
2018-07-11T07:41:45.279Z,1501.88
2018-07-11T07:42:45.287Z,1479.38
2018-07-11T07:43:45.283Z,3178.13
2018-07-11T07:44:45.303Z,1170.00
2018-07-11T07:45:45.298Z,1125.00
2018-07-11T07:46:45.305Z,1721.25
2018-07-11T07:47:45.295Z,3577.50
2018-07-11T07:48:45.300Z,3768.75
2018-07-11T07:49:45.302Z,3633.75
2018-07-11T07:50:45.312Z,4055.63
2018-07-11T07:51:45.326Z,3830.63
2018-07-11T07:52:45.341Z,1608.75
2018-07-11T07:53:45.322Z,1625.63
2018-07-11T07:54:45.340Z,3352.50
2018-07-11T07:55:45.339Z,1434.38
2018-07-11T07:56:45.344Z,1518.75
2018-07-11T07:57:45.353Z,3999.38
2018-07-11T07:58:45.360Z,3718.13
2018-07-11T07:59:45.373Z,2368.13
2018-07-11T08:00:45.376Z,2013.75
2018-07-11T08:01:45.388Z,2446.88
2018-07-11T08:02:45.390Z,4201.88
2018-07-11T08:03:45.409Z,1906.88
2018-07-11T08:04:45.441Z,1732.50
2018-07-11T08:05:45.452Z,2846.25
2018-07-11T08:06:45.432Z,3819.38
2018-07-11T08:07:45.444Z,3960.00
2018-07-11T08:08:45.448Z,2081.25
2018-07-11T08:09:45.459Z,4308.75
2018-07-11T08:10:45.472Z,3318.75
2018-07-11T08:11:45.502Z,2626.88
2018-07-11T08:12:45.573Z,4072.50
2018-07-11T08:13:45.500Z,3076.88
2018-07-11T08:14:45.563Z,1918.13
2018-07-11T08:15:45.529Z,1749.38
2018-07-11T08:16:45.544Z,4443.75
2018-07-11T08:17:45.553Z,2565.00
2018-07-11T08:18:45.564Z,2610.00
2018-07-11T08:19:45.579Z,2154.38
2018-07-11T08:20:45.701Z,1884.38
2018-07-11T08:21:45.604Z,1929.38
2018-07-11T08:22:45.641Z,1822.50
2018-07-11T08:23:45.621Z,1738.13
2018-07-11T08:24:45.634Z,1822.50
2018-07-11T08:25:45.671Z,1800.00
2018-07-11T08:26:45.666Z,1580.63
2018-07-11T08:27:45.665Z,1636.88
2018-07-11T08:28:45.680Z,1693.13
2018-07-11T08:29:45.688Z,1760.63
2018-07-11T08:30:45.697Z,1839.38
2018-07-11T08:31:45.707Z,2064.38
2018-07-11T08:32:45.713Z,2829.38
2018-07-11T08:33:45.743Z,1760.63
2018-07-11T08:34:45.734Z,1665.00
2018-07-11T08:35:45.737Z,1507.50
2018-07-11T08:36:45.751Z,1355.63
2018-07-11T08:37:45.760Z,1237.50
2018-07-11T08:38:45.771Z,956.25
2018-07-11T08:39:45.781Z,922.50
2018-07-11T08:40:45.781Z,866.25
2018-07-11T08:41:45.802Z,849.38
2018-07-11T08:42:45.807Z,855.00
2018-07-11T08:43:45.809Z,855.00
2018-07-11T08:44:45.823Z,894.38
2018-07-11T08:45:45.828Z,939.38
2018-07-11T08:46:45.825Z,1018.13
2018-07-11T08:47:45.880Z,1158.75
2018-07-11T08:48:45.849Z,1305.00
2018-07-11T08:49:45.847Z,1395.00
2018-07-11T08:50:45.875Z,1507.50
2018-07-11T08:51:45.868Z,1524.38
2018-07-11T08:52:45.863Z,1710.00
2018-07-11T08:53:45.877Z,2272.50
2018-07-11T08:54:45.878Z,1771.88
2018-07-11T08:55:45.895Z,1715.63
2018-07-11T08:56:45.898Z,1783.13
2018-07-11T08:57:45.901Z,1946.25
2018-07-11T08:58:45.911Z,2025.00
2018-07-11T08:59:45.914Z,2047.50
2018-07-11T09:00:45.921Z,1912.50
2018-07-11T09:01:45.928Z,2199.38
2018-07-11T09:02:45.971Z,1636.88
2018-07-11T09:03:45.943Z,1366.88
2018-07-11T09:04:45.949Z,1248.75
2018-07-11T09:05:45.952Z,1248.75
2018-07-11T09:06:45.961Z,1355.63
2018-07-11T09:07:46.009Z,1625.63
2018-07-11T09:08:45.971Z,1710.00
2018-07-11T09:09:45.983Z,1575.00
2018-07-11T09:10:46.020Z,1957.50
2018-07-11T09:11:45.991Z,4370.63
2018-07-11T09:12:46.004Z,2036.25
2018-07-11T09:13:46.066Z,2407.50
2018-07-11T09:14:46.070Z,2131.88
2018-07-11T09:15:46.022Z,4207.50
2018-07-11T09:16:46.084Z,1518.75
2018-07-11T09:17:46.100Z,1293.75
2018-07-11T09:18:46.056Z,1265.63
2018-07-11T09:19:46.054Z,1378.13
2018-07-11T09:20:46.053Z,1603.13
2018-07-11T09:21:46.078Z,2587.50
2018-07-11T09:22:46.068Z,5326.88
2018-07-11T09:23:46.077Z,3116.25
2018-07-11T09:24:46.115Z,2272.50
2018-07-11T09:25:46.101Z,2660.63
2018-07-11T09:26:46.102Z,4134.38
2018-07-11T09:27:46.110Z,5287.50
2018-07-11T09:28:46.117Z,2508.75
2018-07-11T09:29:46.127Z,1856.25
2018-07-11T09:30:46.145Z,1839.38
2018-07-11T09:31:46.157Z,4432.50
2018-07-11T09:32:46.166Z,4815.00
2018-07-11T09:33:46.176Z,5040.00
2018-07-11T09:34:46.190Z,4123.13
2018-07-11T09:35:46.193Z,4089.38
2018-07-11T09:36:46.215Z,3144.38
2018-07-11T09:37:46.225Z,2053.13
2018-07-11T09:38:46.429Z,4691.25
2018-07-11T09:39:46.251Z,4826.25
2018-07-11T09:40:46.254Z,5197.50
2018-07-11T09:41:46.281Z,5405.63
2018-07-11T09:42:46.292Z,4601.25
2018-07-11T09:43:46.310Z,2840.63
2018-07-11T09:44:46.329Z,1513.13
2018-07-11T09:45:46.349Z,1676.25
2018-07-11T09:46:46.355Z,3031.88
2018-07-11T09:47:46.370Z,4055.63
2018-07-11T09:48:46.382Z,1850.63
2018-07-11T09:49:46.394Z,1569.38
2018-07-11T09:50:46.410Z,1321.88
2018-07-11T09:51:46.425Z,1175.63
2018-07-11T09:52:46.437Z,1091.25
2018-07-11T09:53:46.448Z,967.50
2018-07-11T09:54:46.469Z,900.00
2018-07-11T09:55:46.490Z,860.63
2018-07-11T09:56:46.479Z,821.25
2018-07-11T09:57:46.541Z,753.75
2018-07-11T09:58:46.503Z,675.00
2018-07-11T09:59:46.509Z,624.38
2018-07-11T10:00:46.522Z,585.00
2018-07-11T10:01:46.525Z,517.50
2018-07-11T10:02:46.532Z,455.63
2018-07-11T10:03:46.538Z,405.00
2018-07-11T10:04:46.562Z,376.88
2018-07-11T10:05:46.557Z,337.50
2018-07-11T10:06:46.563Z,298.13
2018-07-11T10:07:46.565Z,270.00
2018-07-11T10:08:46.589Z,253.13
2018-07-11T10:09:46.595Z,258.75
2018-07-11T10:10:46.594Z,264.38
2018-07-11T10:11:46.596Z,286.88
2018-07-11T10:12:46.591Z,326.25
2018-07-11T10:13:46.598Z,382.50
2018-07-11T10:14:46.603Z,455.63
2018-07-11T10:15:46.606Z,517.50
2018-07-11T10:16:46.610Z,618.75
2018-07-11T10:17:46.613Z,736.88
2018-07-11T10:18:46.629Z,888.75
2018-07-11T10:19:46.621Z,1029.38
2018-07-11T10:20:46.623Z,1141.88
2018-07-11T10:21:46.625Z,1119.38
2018-07-11T10:22:46.634Z,1080.00
2018-07-11T10:23:46.626Z,1035.00
2018-07-11T10:24:46.640Z,967.50
2018-07-11T10:25:46.656Z,928.13
2018-07-11T10:26:46.719Z,916.88
2018-07-11T10:27:46.732Z,939.38
2018-07-11T10:28:46.661Z,939.38
2018-07-11T10:29:46.741Z,956.25
2018-07-11T10:30:46.764Z,1046.25
2018-07-11T10:31:46.664Z,1288.13
2018-07-11T10:32:46.763Z,1575.00
2018-07-11T10:33:46.666Z,2919.38
2018-07-11T10:34:46.673Z,1383.75
2018-07-11T10:35:46.680Z,1293.75
2018-07-11T10:36:46.795Z,1265.63
2018-07-11T10:37:46.699Z,1518.75
2018-07-11T10:38:46.700Z,1181.25
2018-07-11T10:39:46.713Z,1085.63
2018-07-11T10:40:46.722Z,984.38
2018-07-11T10:41:46.724Z,894.38
2018-07-11T10:42:46.726Z,804.38
2018-07-11T10:43:46.717Z,703.13
2018-07-11T10:44:46.774Z,585.00
2018-07-11T10:45:46.724Z,483.75
2018-07-11T10:46:46.739Z,421.88
2018-07-11T10:47:46.727Z,388.13
2018-07-11T10:48:46.738Z,388.13
2018-07-11T10:49:46.744Z,410.63
2018-07-11T10:50:46.747Z,433.13
2018-07-11T10:51:46.755Z,410.63
2018-07-11T10:52:46.754Z,365.63
2018-07-11T10:53:46.762Z,320.63
2018-07-11T10:54:46.763Z,292.50
2018-07-11T10:55:46.900Z,281.25
2018-07-11T10:56:46.768Z,281.25
2018-07-11T10:57:46.873Z,281.25
2018-07-11T10:58:46.789Z,275.63
2018-07-11T10:59:46.781Z,258.75
2018-07-11T11:01:05.029Z,247.50
2018-07-11T11:01:46.781Z,236.25
2018-07-11T11:02:46.851Z,241.88
2018-07-11T11:03:46.784Z,258.75
2018-07-11T11:04:46.796Z,303.75
2018-07-11T11:05:46.796Z,365.63
2018-07-11T11:06:46.796Z,455.63
2018-07-11T11:07:46.793Z,556.88
2018-07-11T11:08:46.793Z,635.63
2018-07-11T11:09:46.801Z,720.00
2018-07-11T11:10:46.790Z,821.25
2018-07-11T11:11:46.850Z,939.38
2018-07-11T11:12:46.803Z,1119.38
2018-07-11T11:13:46.816Z,1440.00
2018-07-11T11:14:46.810Z,2041.88
2018-07-11T11:15:46.808Z,1906.88
2018-07-11T11:16:46.806Z,2131.88
2018-07-11T11:17:46.810Z,1456.88
2018-07-11T11:18:46.810Z,1344.38
2018-07-11T11:19:46.836Z,1305.00
2018-07-11T11:20:46.842Z,1305.00
2018-07-11T11:21:46.857Z,1372.50
2018-07-11T11:22:46.827Z,1333.13
2018-07-11T11:23:46.830Z,1344.38
2018-07-11T11:24:46.829Z,1338.75
2018-07-11T11:25:46.847Z,1344.38
2018-07-11T11:26:46.843Z,1378.13
2018-07-11T11:27:46.841Z,1451.25
2018-07-11T11:28:46.846Z,1563.75
2018-07-11T11:29:46.852Z,1715.63
2018-07-11T11:30:46.856Z,2823.75
2018-07-11T11:31:46.859Z,3397.50
2018-07-11T11:32:46.859Z,2964.38
2018-07-11T11:33:46.872Z,2131.88
2018-07-11T11:34:46.917Z,2025.00
2018-07-11T11:35:46.925Z,1951.88
2018-07-11T11:36:46.886Z,1833.75
2018-07-11T11:37:46.920Z,2041.88
2018-07-11T11:38:46.903Z,2430.00
2018-07-11T11:39:46.911Z,2846.25
2018-07-11T11:40:46.915Z,3943.13
2018-07-11T11:41:47.027Z,6316.88
2018-07-11T11:42:46.972Z,2750.63
2018-07-11T11:43:46.926Z,5771.25
2018-07-11T11:44:46.968Z,5135.63
2018-07-11T11:45:46.957Z,2221.88
2018-07-11T11:46:46.974Z,2255.63
2018-07-11T11:47:46.974Z,2441.25
2018-07-11T11:48:46.985Z,2171.25
2018-07-11T11:49:46.993Z,4657.50
2018-07-11T11:50:47.030Z,3054.38
2018-07-11T11:51:47.014Z,5698.13
2018-07-11T11:52:47.028Z,1946.25
2018-07-11T11:53:47.104Z,1530.00
2018-07-11T11:54:47.046Z,1513.13
2018-07-11T11:55:47.073Z,1591.88
2018-07-11T11:56:47.064Z,1614.38
2018-07-11T11:57:47.082Z,1496.25
2018-07-11T11:58:47.104Z,1507.50
2018-07-11T11:59:47.121Z,2086.88
2018-07-11T12:00:47.099Z,2745.00
2018-07-11T12:01:47.152Z,3352.50
2018-07-11T12:02:47.123Z,4944.38
2018-07-11T12:03:47.137Z,3166.88
2018-07-11T12:04:47.137Z,2379.38
2018-07-11T12:05:47.152Z,1957.50
2018-07-11T12:06:47.168Z,1783.13
2018-07-11T12:07:47.175Z,1653.75
2018-07-11T12:08:47.185Z,1580.63
2018-07-11T12:09:47.194Z,1417.50
2018-07-11T12:10:47.206Z,1226.25
2018-07-11T12:11:47.236Z,1125.00
2018-07-11T12:12:47.438Z,1051.88
2018-07-11T12:13:47.233Z,1091.25
2018-07-11T12:14:47.243Z,1141.88
2018-07-11T12:15:47.256Z,1141.88
2018-07-11T12:16:47.262Z,1181.25
2018-07-11T12:17:47.269Z,1209.38
2018-07-11T12:18:47.276Z,1271.25
2018-07-11T12:19:47.285Z,1299.38
2018-07-11T12:20:47.294Z,1276.88
2018-07-11T12:21:47.299Z,1220.63
2018-07-11T12:22:47.309Z,1198.13
2018-07-11T12:23:47.341Z,1198.13
2018-07-11T12:24:47.328Z,1209.38
2018-07-11T12:25:47.337Z,1198.13
2018-07-11T12:26:47.362Z,1170.00
2018-07-11T12:27:47.343Z,1153.13
2018-07-11T12:28:47.374Z,1305.00
2018-07-11T12:29:47.362Z,1231.88
2018-07-11T12:30:47.370Z,1023.75
2018-07-11T12:31:47.373Z,990.00
2018-07-11T12:32:47.380Z,1023.75
2018-07-11T12:33:47.396Z,1057.50
2018-07-11T12:34:47.395Z,1108.13
2018-07-11T12:35:47.403Z,1276.88
2018-07-11T12:36:47.407Z,1378.13
2018-07-11T12:37:47.557Z,1603.13
2018-07-11T12:38:47.421Z,1434.38
2018-07-11T12:39:47.426Z,1406.25
2018-07-11T12:40:47.603Z,1333.13
2018-07-11T12:41:47.438Z,1248.75
2018-07-11T12:42:47.445Z,1181.25
2018-07-11T12:43:47.455Z,1147.50
2018-07-11T12:44:47.467Z,1125.00
2018-07-11T12:45:47.463Z,1091.25
2018-07-11T12:46:47.469Z,1051.88
2018-07-11T12:47:47.470Z,1035.00
2018-07-11T12:48:47.487Z,1012.50
2018-07-11T12:49:47.507Z,973.13
2018-07-11T12:50:47.501Z,961.88
2018-07-11T12:51:47.494Z,1018.13
2018-07-11T12:52:47.496Z,1147.50
2018-07-11T12:53:47.501Z,1260.00
2018-07-11T12:54:47.510Z,1288.13
2018-07-11T12:55:47.533Z,1282.50
2018-07-11T12:56:47.519Z,1271.25
2018-07-11T12:57:47.529Z,1271.25
2018-07-11T12:58:47.531Z,1344.38
2018-07-11T12:59:47.535Z,1411.88
2018-07-11T13:00:47.538Z,1468.13
2018-07-11T13:01:47.545Z,1496.25
2018-07-11T13:02:47.544Z,1490.63
2018-07-11T13:03:47.551Z,1569.38
2018-07-11T13:04:47.562Z,1496.25
2018-07-11T13:05:47.560Z,1468.13
2018-07-11T13:06:47.569Z,1434.38
2018-07-11T13:07:47.572Z,1383.75
2018-07-11T13:08:47.572Z,1344.38
2018-07-11T13:09:47.573Z,1293.75
2018-07-11T13:10:47.625Z,1243.13
2018-07-11T13:11:47.597Z,1327.50
2018-07-11T13:12:47.596Z,1378.13
2018-07-11T13:13:47.608Z,1423.13
2018-07-11T13:14:47.616Z,1428.75
2018-07-11T13:15:47.629Z,1417.50
2018-07-11T13:16:47.645Z,1400.63
2018-07-11T13:17:47.628Z,1378.13
2018-07-11T13:18:47.651Z,1372.50
2018-07-11T13:19:47.641Z,1411.88
2018-07-11T13:20:47.649Z,1400.63
2018-07-11T13:21:47.700Z,1389.38
2018-07-11T13:22:47.691Z,1389.38
2018-07-11T13:23:47.656Z,1423.13
2018-07-11T13:24:47.661Z,1496.25
2018-07-11T13:25:47.677Z,1597.50
2018-07-11T13:26:47.672Z,1659.38
2018-07-11T13:27:47.690Z,1631.25
2018-07-11T13:28:47.689Z,1485.00
2018-07-11T13:29:47.701Z,1389.38
2018-07-11T13:30:47.709Z,1310.63
2018-07-11T13:31:47.715Z,1276.88
2018-07-11T13:32:47.717Z,1248.75
2018-07-11T13:33:47.726Z,1248.75
2018-07-11T13:34:47.725Z,1237.50
2018-07-11T13:35:47.732Z,1243.13
2018-07-11T13:36:47.743Z,1237.50
2018-07-11T13:37:47.747Z,1209.38
2018-07-11T13:38:47.788Z,1068.75
2018-07-11T13:39:47.762Z,1125.00
2018-07-11T13:40:47.761Z,1338.75
2018-07-11T13:41:47.770Z,1276.88
2018-07-11T13:42:47.879Z,1147.50
2018-07-11T13:43:47.812Z,1001.25
2018-07-11T13:44:47.784Z,905.63
2018-07-11T13:45:47.793Z,911.25
2018-07-11T13:46:47.796Z,973.13
2018-07-11T13:47:47.800Z,995.63
2018-07-11T13:48:47.828Z,967.50
2018-07-11T13:49:47.814Z,945.00
2018-07-11T13:50:47.822Z,928.13
2018-07-11T13:51:47.828Z,956.25
2018-07-11T13:52:47.831Z,950.63
2018-07-11T13:53:47.844Z,956.25
2018-07-11T13:54:47.846Z,1001.25
2018-07-11T13:55:47.955Z,1012.50
2018-07-11T13:56:47.857Z,1035.00
2018-07-11T13:57:47.858Z,1068.75
2018-07-11T13:58:47.869Z,1102.50
2018-07-11T13:59:47.866Z,1085.63
2018-07-11T14:00:47.873Z,1040.63
2018-07-11T14:01:47.892Z,1001.25
2018-07-11T14:02:47.885Z,984.38
2018-07-11T14:03:47.932Z,978.75
2018-07-11T14:04:47.897Z,990.00
2018-07-11T14:05:47.898Z,1012.50
2018-07-11T14:06:47.923Z,950.63
2018-07-11T14:07:47.929Z,855.00
2018-07-11T14:08:47.914Z,810.00
2018-07-11T14:09:47.925Z,781.88
2018-07-11T14:10:47.915Z,765.00
2018-07-11T14:11:47.929Z,765.00
2018-07-11T14:12:47.920Z,804.38
2018-07-11T14:13:47.954Z,815.63
2018-07-11T14:14:47.937Z,871.88
2018-07-11T14:15:47.942Z,911.25
2018-07-11T14:16:47.951Z,916.88
2018-07-11T14:17:47.949Z,888.75
2018-07-11T14:18:47.952Z,843.75
2018-07-11T14:19:47.953Z,810.00
2018-07-11T14:20:47.964Z,849.38
2018-07-11T14:21:47.966Z,855.00
2018-07-11T14:22:47.968Z,888.75
2018-07-11T14:23:47.970Z,928.13
2018-07-11T14:24:47.999Z,900.00
2018-07-11T14:25:47.981Z,888.75
2018-07-11T14:26:47.981Z,855.00
2018-07-11T14:27:48.079Z,838.13
2018-07-11T14:28:47.990Z,849.38
2018-07-11T14:29:48.056Z,928.13
2018-07-11T14:30:47.995Z,1046.25
2018-07-11T14:31:48.000Z,1119.38
2018-07-11T14:32:48.018Z,1085.63
2018-07-11T14:33:48.006Z,945.00